sensor_id;sensor_type;location;lat;lon;timestamp;temperature;humidity
67529;DHT22;54366;51.980;5.856;2024-03-23T00:54:15;9.80;85.00
67529;DHT22;54366;51.980;5.856;2024-03-23T00:56:41;9.80;85.00
67529;DHT22;54366;51.980;5.856;2024-03-23T00:59:08;9.70;84.80
67529;DHT22;54366;51.980;5.856;2024-03-23T01:01:34;9.70;84.80
67529;DHT22;54366;51.980;5.856;2024-03-23T01:04:00;9.70;84.90
67529;DHT22;54366;51.980;5.856;2024-03-23T01:06:27;9.70;85.00
67529;DHT22;54366;51.980;5.856;2024-03-23T01:08:53;9.70;85.10
67529;DHT22;54366;51.980;5.856;2024-03-23T01:11:19;9.70;85.00
67529;DHT22;54366;51.980;5.856;2024-03-23T01:13:45;9.70;85.00
67529;DHT22;54366;51.980;5.856;2024-03-23T01:16:12;9.70;85.10
67529;DHT22;54366;51.980;5.856;2024-03-23T01:18:38;9.70;85.20
67529;DHT22;54366;51.980;5.856;2024-03-23T01:21:04;9.80;85.20
67529;DHT22;54366;51.980;5.856;2024-03-23T01:23:31;9.70;85.10
67529;DHT22;54366;51.980;5.856;2024-03-23T01:25:57;9.70;85.10
67529;DHT22;54366;51.980;5.856;2024-03-23T01:28:23;9.60;85.10
67529;DHT22;54366;51.980;5.856;2024-03-23T01:30:49;9.70;85.20
67529;DHT22;54366;51.980;5.856;2024-03-23T01:33:16;9.60;85.10
67529;DHT22;54366;51.980;5.856;2024-03-23T01:35:42;9.60;85.10
67529;DHT22;54366;51.980;5.856;2024-03-23T01:38:10;9.60;85.10
67529;DHT22;54366;51.980;5.856;2024-03-23T01:40:36;9.60;85.00
67529;DHT22;54366;51.980;5.856;2024-03-23T01:43:05;9.60;85.00
67529;DHT22;54366;51.980;5.856;2024-03-23T01:45:34;9.60;85.00
67529;DHT22;54366;51.980;5.856;2024-03-23T01:48:01;9.60;85.00
67529;DHT22;54366;51.980;5.856;2024-03-23T01:50:27;9.60;85.00
67529;DHT22;54366;51.980;5.856;2024-03-23T01:52:54;9.60;85.00
67529;DHT22;54366;51.980;5.856;2024-03-23T01:55:20;9.60;85.10
67529;DHT22;54366;51.980;5.856;2024-03-23T01:57:47;9.60;85.10
67529;DHT22;54366;51.980;5.856;2024-03-23T02:00:13;9.60;85.20
67529;DHT22;54366;51.980;5.856;2024-03-23T02:02:44;9.60;85.30
67529;DHT22;54366;51.980;5.856;2024-03-23T02:05:11;9.50;85.30
67529;DHT22;54366;51.980;5.856;2024-03-23T02:07:41;9.50;85.30
67529;DHT22;54366;51.980;5.856;2024-03-23T02:10:10;9.50;85.30
67529;DHT22;54366;51.980;5.856;2024-03-23T02:12:37;9.60;86.00
67529;DHT22;54366;51.980;5.856;2024-03-23T02:15:03;9.50;85.30
67529;DHT22;54366;51.980;5.856;2024-03-23T02:17:32;9.50;85.30
67529;DHT22;54366;51.980;5.856;2024-03-23T02:19:59;9.50;85.40
67529;DHT22;54366;51.980;5.856;2024-03-23T02:22:38;9.50;86.00
67529;DHT22;54366;51.980;5.856;2024-03-23T02:25:05;9.60;85.40
67529;DHT22;54366;51.980;5.856;2024-03-23T02:27:32;9.50;85.30
67529;DHT22;54366;51.980;5.856;2024-03-23T02:29:59;9.50;85.30
67529;DHT22;54366;51.980;5.856;2024-03-23T02:32:25;9.50;85.30
67529;DHT22;54366;51.980;5.856;2024-03-23T02:34:52;9.50;85.30
67529;DHT22;54366;51.980;5.856;2024-03-23T02:37:18;9.50;85.30
67529;DHT22;54366;51.980;5.856;2024-03-23T02:39:44;9.50;85.30
67529;DHT22;54366;51.980;5.856;2024-03-23T02:42:11;9.40;85.20
67529;DHT22;54366;51.980;5.856;2024-03-23T02:44:37;9.40;85.20
67529;DHT22;54366;51.980;5.856;2024-03-23T02:47:03;9.40;85.10
67529;DHT22;54366;51.980;5.856;2024-03-23T02:49:30;9.40;85.20
67529;DHT22;54366;51.980;5.856;2024-03-23T02:51:56;9.40;85.20
67529;DHT22;54366;51.980;5.856;2024-03-23T02:54:22;9.40;85.20
67529;DHT22;54366;51.980;5.856;2024-03-23T02:56:48;9.30;85.20
67529;DHT22;54366;51.980;5.856;2024-03-23T02:59:15;9.30;85.20
67529;DHT22;54366;51.980;5.856;2024-03-23T03:01:41;9.30;85.20
67529;DHT22;54366;51.980;5.856;2024-03-23T03:04:07;9.30;85.30
67529;DHT22;54366;51.980;5.856;2024-03-23T03:06:33;9.20;85.20
67529;DHT22;54366;51.980;5.856;2024-03-23T03:09:00;9.20;85.20
67529;DHT22;54366;51.980;5.856;2024-03-23T03:11:26;9.20;85.80
67529;DHT22;54366;51.980;5.856;2024-03-23T03:13:52;9.10;85.20
67529;DHT22;54366;51.980;5.856;2024-03-23T03:16:19;9.10;85.20
67529;DHT22;54366;51.980;5.856;2024-03-23T03:18:45;9.10;85.20
67529;DHT22;54366;51.980;5.856;2024-03-23T03:21:12;9.10;85.20
67529;DHT22;54366;51.980;5.856;2024-03-23T03:23:39;9.00;85.20
67529;DHT22;54366;51.980;5.856;2024-03-23T03:26:06;9.10;85.30
67529;DHT22;54366;51.980;5.856;2024-03-23T03:28:32;9.10;85.30
67529;DHT22;54366;51.980;5.856;2024-03-23T03:30:59;9.00;85.20
67529;DHT22;54366;51.980;5.856;2024-03-23T03:33:27;9.00;85.30
67529;DHT22;54366;51.980;5.856;2024-03-23T03:35:54;9.00;85.20
67529;DHT22;54366;51.980;5.856;2024-03-23T03:38:21;9.00;85.20
67529;DHT22;54366;51.980;5.856;2024-03-23T03:40:47;8.90;85.10
67529;DHT22;54366;51.980;5.856;2024-03-23T03:43:13;8.90;85.10
67529;DHT22;54366;51.980;5.856;2024-03-23T03:45:40;8.90;85.20
67529;DHT22;54366;51.980;5.856;2024-03-23T03:48:06;8.90;85.20
67529;DHT22;54366;51.980;5.856;2024-03-23T03:50:33;8.90;85.20
67529;DHT22;54366;51.980;5.856;2024-03-23T03:52:59;8.90;85.10
67529;DHT22;54366;51.980;5.856;2024-03-23T03:55:25;8.90;85.10
67529;DHT22;54366;51.980;5.856;2024-03-23T03:57:51;8.90;85.00
67529;DHT22;54366;51.980;5.856;2024-03-23T04:00:18;8.80;85.00
67529;DHT22;54366;51.980;5.856;2024-03-23T04:02:44;8.80;85.00
67529;DHT22;54366;51.980;5.856;2024-03-23T04:05:10;8.80;85.00
67529;DHT22;54366;51.980;5.856;2024-03-23T04:07:37;8.80;85.00
67529;DHT22;54366;51.980;5.856;2024-03-23T04:10:03;8.80;84.90
67529;DHT22;54366;51.980;5.856;2024-03-23T04:12:33;8.80;85.00
67529;DHT22;54366;51.980;5.856;2024-03-23T04:15:00;8.70;84.90
67529;DHT22;54366;51.980;5.856;2024-03-23T04:17:27;8.70;84.90
67529;DHT22;54366;51.980;5.856;2024-03-23T04:19:58;8.70;84.90
67529;DHT22;54366;51.980;5.856;2024-03-23T04:22:24;8.70;84.90
67529;DHT22;54366;51.980;5.856;2024-03-23T04:24:56;8.70;84.90
67529;DHT22;54366;51.980;5.856;2024-03-23T04:27:25;8.60;84.80
67529;DHT22;54366;51.980;5.856;2024-03-23T04:29:52;8.60;84.80
67529;DHT22;54366;51.980;5.856;2024-03-23T04:32:21;8.50;84.70
67529;DHT22;54366;51.980;5.856;2024-03-23T04:34:48;8.60;84.60
67529;DHT22;54366;51.980;5.856;2024-03-23T04:37:14;8.50;84.60
67529;DHT22;54366;51.980;5.856;2024-03-23T04:39:40;8.50;84.50
67529;DHT22;54366;51.980;5.856;2024-03-23T04:42:07;8.40;84.40
67529;DHT22;54366;51.980;5.856;2024-03-23T04:44:34;8.40;85.00
67529;DHT22;54366;51.980;5.856;2024-03-23T04:47:00;8.40;84.30
67529;DHT22;54366;51.980;5.856;2024-03-23T04:49:27;8.40;84.40
67529;DHT22;54366;51.980;5.856;2024-03-23T04:51:53;8.40;84.30
67529;DHT22;54366;51.980;5.856;2024-03-23T04:54:19;8.30;84.30
67529;DHT22;54366;51.980;5.856;2024-03-23T04:56:48;8.30;84.30
67529;DHT22;54366;51.980;5.856;2024-03-23T04:59:15;8.30;84.10
67529;DHT22;54366;51.980;5.856;2024-03-23T05:01:41;8.30;84.00
67529;DHT22;54366;51.980;5.856;2024-03-23T05:04:09;8.30;84.10
67529;DHT22;54366;51.980;5.856;2024-03-23T05:06:35;8.20;84.00
67529;DHT22;54366;51.980;5.856;2024-03-23T05:09:02;8.30;84.10
67529;DHT22;54366;51.980;5.856;2024-03-23T05:11:41;8.20;84.10
67529;DHT22;54366;51.980;5.856;2024-03-23T05:14:12;8.20;84.00
67529;DHT22;54366;51.980;5.856;2024-03-23T05:16:39;8.10;84.00
67529;DHT22;54366;51.980;5.856;2024-03-23T05:19:05;8.10;83.90
67529;DHT22;54366;51.980;5.856;2024-03-23T05:21:32;8.10;84.00
67529;DHT22;54366;51.980;5.856;2024-03-23T05:23:58;8.10;84.00
67529;DHT22;54366;51.980;5.856;2024-03-23T05:26:24;8.00;84.00
67529;DHT22;54366;51.980;5.856;2024-03-23T05:28:51;8.00;84.10
67529;DHT22;54366;51.980;5.856;2024-03-23T05:31:28;8.00;84.10
67529;DHT22;54366;51.980;5.856;2024-03-23T05:33:54;8.10;84.10
67529;DHT22;54366;51.980;5.856;2024-03-23T05:36:21;8.00;84.00
67529;DHT22;54366;51.980;5.856;2024-03-23T05:38:47;8.00;84.10
67529;DHT22;54366;51.980;5.856;2024-03-23T05:41:14;8.00;84.10
67529;DHT22;54366;51.980;5.856;2024-03-23T05:43:40;8.00;84.20
67529;DHT22;54366;51.980;5.856;2024-03-23T05:46:06;8.00;84.10
67529;DHT22;54366;51.980;5.856;2024-03-23T05:48:33;7.90;84.60
67529;DHT22;54366;51.980;5.856;2024-03-23T05:51:00;8.00;84.10
67529;DHT22;54366;51.980;5.856;2024-03-23T05:53:26;7.90;84.10
67529;DHT22;54366;51.980;5.856;2024-03-23T05:56:01;7.90;84.00
67529;DHT22;54366;51.980;5.856;2024-03-23T05:58:30;7.90;83.90
67529;DHT22;54366;51.980;5.856;2024-03-23T06:01:00;7.80;83.80
67529;DHT22;54366;51.980;5.856;2024-03-23T06:03:28;7.80;83.90
67529;DHT22;54366;51.980;5.856;2024-03-23T06:05:55;7.80;84.10
67529;DHT22;54366;51.980;5.856;2024-03-23T06:08:22;7.70;83.80
67529;DHT22;54366;51.980;5.856;2024-03-23T06:10:50;7.80;83.80
67529;DHT22;54366;51.980;5.856;2024-03-23T06:13:16;7.70;83.80
67529;DHT22;54366;51.980;5.856;2024-03-23T06:15:44;7.70;83.90
67529;DHT22;54366;51.980;5.856;2024-03-23T06:18:12;7.70;83.90
67529;DHT22;54366;51.980;5.856;2024-03-23T06:20:38;7.70;84.00
67529;DHT22;54366;51.980;5.856;2024-03-23T06:23:05;7.70;84.00
67529;DHT22;54366;51.980;5.856;2024-03-23T06:25:31;7.70;84.00
67529;DHT22;54366;51.980;5.856;2024-03-23T06:27:58;7.70;84.10
67529;DHT22;54366;51.980;5.856;2024-03-23T06:30:24;7.70;84.00
67529;DHT22;54366;51.980;5.856;2024-03-23T06:32:52;7.80;83.90
67529;DHT22;54366;51.980;5.856;2024-03-23T06:35:19;7.80;83.80
67529;DHT22;54366;51.980;5.856;2024-03-23T06:37:45;7.90;83.80
67529;DHT22;54366;51.980;5.856;2024-03-23T06:40:12;7.90;83.80
67529;DHT22;54366;51.980;5.856;2024-03-23T06:42:38;7.90;83.60
67529;DHT22;54366;51.980;5.856;2024-03-23T06:45:05;7.90;83.50
67529;DHT22;54366;51.980;5.856;2024-03-23T06:47:32;7.90;83.50
67529;DHT22;54366;51.980;5.856;2024-03-23T06:50:03;8.00;84.20
67529;DHT22;54366;51.980;5.856;2024-03-23T06:52:30;8.10;83.30
67529;DHT22;54366;51.980;5.856;2024-03-23T06:54:57;8.10;83.10
67529;DHT22;54366;51.980;5.856;2024-03-23T06:57:24;8.10;83.00
67529;DHT22;54366;51.980;5.856;2024-03-23T06:59:50;8.20;82.90
67529;DHT22;54366;51.980;5.856;2024-03-23T07:02:16;8.20;83.00
67529;DHT22;54366;51.980;5.856;2024-03-23T07:04:43;8.20;83.10
67529;DHT22;54366;51.980;5.856;2024-03-23T07:07:09;8.30;83.10
67529;DHT22;54366;51.980;5.856;2024-03-23T07:09:35;8.40;83.00
67529;DHT22;54366;51.980;5.856;2024-03-23T07:12:03;8.40;82.60
67529;DHT22;54366;51.980;5.856;2024-03-23T07:14:30;8.50;82.70
67529;DHT22;54366;51.980;5.856;2024-03-23T07:16:57;8.50;82.60
67529;DHT22;54366;51.980;5.856;2024-03-23T07:19:23;8.60;82.50
67529;DHT22;54366;51.980;5.856;2024-03-23T07:21:50;8.50;82.50
67529;DHT22;54366;51.980;5.856;2024-03-23T07:24:17;8.60;82.40
67529;DHT22;54366;51.980;5.856;2024-03-23T07:26:43;8.70;82.50
67529;DHT22;54366;51.980;5.856;2024-03-23T07:29:10;8.70;82.30
67529;DHT22;54366;51.980;5.856;2024-03-23T07:31:36;8.70;82.20
67529;DHT22;54366;51.980;5.856;2024-03-23T07:34:02;8.80;82.20
67529;DHT22;54366;51.980;5.856;2024-03-23T07:36:28;8.80;82.10
67529;DHT22;54366;51.980;5.856;2024-03-23T07:38:55;8.90;82.00
67529;DHT22;54366;51.980;5.856;2024-03-23T07:41:21;9.00;81.70
67529;DHT22;54366;51.980;5.856;2024-03-23T07:43:48;9.00;81.50
67529;DHT22;54366;51.980;5.856;2024-03-23T07:46:15;9.00;81.60
67529;DHT22;54366;51.980;5.856;2024-03-23T07:48:42;9.00;81.20
67529;DHT22;54366;51.980;5.856;2024-03-23T07:51:16;9.10;81.30
67529;DHT22;54366;51.980;5.856;2024-03-23T07:53:43;9.20;81.40
67529;DHT22;54366;51.980;5.856;2024-03-23T07:56:10;9.20;81.00
67529;DHT22;54366;51.980;5.856;2024-03-23T07:58:37;9.30;81.10
67529;DHT22;54366;51.980;5.856;2024-03-23T08:01:07;9.30;81.10
67529;DHT22;54366;51.980;5.856;2024-03-23T08:03:37;9.40;81.00
67529;DHT22;54366;51.980;5.856;2024-03-23T08:08:55;9.50;80.40
67529;DHT22;54366;51.980;5.856;2024-03-23T08:11:31;9.60;79.50
67529;DHT22;54366;51.980;5.856;2024-03-23T08:13:59;9.60;79.60
67529;DHT22;54366;51.980;5.856;2024-03-23T08:16:25;9.60;78.90
67529;DHT22;54366;51.980;5.856;2024-03-23T08:18:52;9.60;79.20
67529;DHT22;54366;51.980;5.856;2024-03-23T08:21:18;9.60;77.90
67529;DHT22;54366;51.980;5.856;2024-03-23T08:23:45;9.60;77.50
67529;DHT22;54366;51.980;5.856;2024-03-23T08:26:12;9.50;77.70
67529;DHT22;54366;51.980;5.856;2024-03-23T08:28:39;9.60;77.70
67529;DHT22;54366;51.980;5.856;2024-03-23T08:31:08;9.60;77.70
67529;DHT22;54366;51.980;5.856;2024-03-23T08:33:34;9.70;77.60
67529;DHT22;54366;51.980;5.856;2024-03-23T08:36:06;9.70;77.60
67529;DHT22;54366;51.980;5.856;2024-03-23T08:38:33;9.80;77.20
67529;DHT22;54366;51.980;5.856;2024-03-23T08:41:01;10.00;75.30
67529;DHT22;54366;51.980;5.856;2024-03-23T08:43:29;10.00;75.10
67529;DHT22;54366;51.980;5.856;2024-03-23T08:48:43;10.10;74.60
67529;DHT22;54366;51.980;5.856;2024-03-23T08:51:11;10.20;73.90
67529;DHT22;54366;51.980;5.856;2024-03-23T08:53:38;10.40;73.30
67529;DHT22;54366;51.980;5.856;2024-03-23T08:56:06;10.50;73.70
67529;DHT22;54366;51.980;5.856;2024-03-23T08:58:33;10.50;71.30
67529;DHT22;54366;51.980;5.856;2024-03-23T09:01:08;10.40;70.80
67529;DHT22;54366;51.980;5.856;2024-03-23T09:03:35;10.40;71.00
67529;DHT22;54366;51.980;5.856;2024-03-23T09:06:12;10.30;71.30
67529;DHT22;54366;51.980;5.856;2024-03-23T09:08:39;10.20;70.80
67529;DHT22;54366;51.980;5.856;2024-03-23T09:11:08;9.90;71.70
67529;DHT22;54366;51.980;5.856;2024-03-23T09:13:35;9.60;72.50
67529;DHT22;54366;51.980;5.856;2024-03-23T09:16:02;9.50;73.60
67529;DHT22;54366;51.980;5.856;2024-03-23T09:18:34;9.30;74.70
67529;DHT22;54366;51.980;5.856;2024-03-23T09:21:02;9.30;75.80
67529;DHT22;54366;51.980;5.856;2024-03-23T09:23:28;9.20;76.10
67529;DHT22;54366;51.980;5.856;2024-03-23T09:25:55;9.10;76.10
67529;DHT22;54366;51.980;5.856;2024-03-23T09:28:22;9.10;76.60
67529;DHT22;54366;51.980;5.856;2024-03-23T09:30:48;9.20;77.20
67529;DHT22;54366;51.980;5.856;2024-03-23T09:33:15;9.40;77.20
67529;DHT22;54366;51.980;5.856;2024-03-23T09:35:42;9.70;77.30
67529;DHT22;54366;51.980;5.856;2024-03-23T09:38:09;9.90;77.70
67529;DHT22;54366;51.980;5.856;2024-03-23T09:40:40;10.20;77.90
67529;DHT22;54366;51.980;5.856;2024-03-23T09:43:08;10.40;76.50
67529;DHT22;54366;51.980;5.856;2024-03-23T09:45:38;10.60;75.70
67529;DHT22;54366;51.980;5.856;2024-03-23T09:48:06;10.80;74.50
67529;DHT22;54366;51.980;5.856;2024-03-23T09:50:32;10.90;74.20
67529;DHT22;54366;51.980;5.856;2024-03-23T09:52:59;11.10;73.80
67529;DHT22;54366;51.980;5.856;2024-03-23T09:55:25;11.30;73.50
67529;DHT22;54366;51.980;5.856;2024-03-23T09:57:52;11.50;73.70
67529;DHT22;54366;51.980;5.856;2024-03-23T10:00:18;11.60;73.80
67529;DHT22;54366;51.980;5.856;2024-03-23T10:02:45;11.90;73.70
67529;DHT22;54366;51.980;5.856;2024-03-23T10:05:22;12.10;72.10
67529;DHT22;54366;51.980;5.856;2024-03-23T10:07:53;12.10;69.50
67529;DHT22;54366;51.980;5.856;2024-03-23T10:10:20;11.90;68.90
67529;DHT22;54366;51.980;5.856;2024-03-23T10:12:48;11.70;69.30
67529;DHT22;54366;51.980;5.856;2024-03-23T10:15:21;11.60;68.00
67529;DHT22;54366;51.980;5.856;2024-03-23T10:17:48;11.60;68.70
67529;DHT22;54366;51.980;5.856;2024-03-23T10:20:22;11.80;69.30
67529;DHT22;54366;51.980;5.856;2024-03-23T10:22:50;12.00;69.90
67529;DHT22;54366;51.980;5.856;2024-03-23T10:25:18;12.20;68.80
67529;DHT22;54366;51.980;5.856;2024-03-23T10:28:00;12.30;67.80
67529;DHT22;54366;51.980;5.856;2024-03-23T10:30:27;12.30;66.60
67529;DHT22;54366;51.980;5.856;2024-03-23T10:33:10;12.10;63.70
67529;DHT22;54366;51.980;5.856;2024-03-23T10:35:37;11.60;63.40
67529;DHT22;54366;51.980;5.856;2024-03-23T10:38:07;11.20;65.70
67529;DHT22;54366;51.980;5.856;2024-03-23T10:40:37;10.90;67.30
67529;DHT22;54366;51.980;5.856;2024-03-23T10:43:04;10.60;68.10
67529;DHT22;54366;51.980;5.856;2024-03-23T10:45:31;10.50;69.40
67529;DHT22;54366;51.980;5.856;2024-03-23T10:47:57;10.60;70.40
67529;DHT22;54366;51.980;5.856;2024-03-23T10:50:23;10.70;70.80
67529;DHT22;54366;51.980;5.856;2024-03-23T10:52:53;10.90;71.60
67529;DHT22;54366;51.980;5.856;2024-03-23T10:55:20;11.00;71.20
67529;DHT22;54366;51.980;5.856;2024-03-23T10:57:52;11.30;69.40
67529;DHT22;54366;51.980;5.856;2024-03-23T11:00:19;11.50;69.30
67529;DHT22;54366;51.980;5.856;2024-03-23T11:02:48;11.70;69.10
67529;DHT22;54366;51.980;5.856;2024-03-23T11:05:30;11.80;68.70
67529;DHT22;54366;51.980;5.856;2024-03-23T11:07:56;11.90;65.80
67529;DHT22;54366;51.980;5.856;2024-03-23T11:10:32;11.90;65.30
67529;DHT22;54366;51.980;5.856;2024-03-23T11:13:22;12.00;63.80
67529;DHT22;54366;51.980;5.856;2024-03-23T11:15:48;12.00;63.80
67529;DHT22;54366;51.980;5.856;2024-03-23T11:18:20;12.00;61.50
67529;DHT22;54366;51.980;5.856;2024-03-23T11:20:47;12.10;60.90
67529;DHT22;54366;51.980;5.856;2024-03-23T11:23:28;12.20;60.20
67529;DHT22;54366;51.980;5.856;2024-03-23T11:25:55;12.30;60.50
67529;DHT22;54366;51.980;5.856;2024-03-23T11:28:21;12.40;60.90
67529;DHT22;54366;51.980;5.856;2024-03-23T11:30:47;12.50;59.60
67529;DHT22;54366;51.980;5.856;2024-03-23T11:33:14;12.70;60.10
67529;DHT22;54366;51.980;5.856;2024-03-23T11:35:41;12.90;58.80
67529;DHT22;54366;51.980;5.856;2024-03-23T11:38:15;12.80;58.30
67529;DHT22;54366;51.980;5.856;2024-03-23T11:40:48;12.60;57.90
67529;DHT22;54366;51.980;5.856;2024-03-23T11:43:19;12.40;59.00
67529;DHT22;54366;51.980;5.856;2024-03-23T11:45:50;12.30;60.40
67529;DHT22;54366;51.980;5.856;2024-03-23T11:48:19;12.30;61.20
67529;DHT22;54366;51.980;5.856;2024-03-23T11:50:48;12.40;60.30
67529;DHT22;54366;51.980;5.856;2024-03-23T11:53:19;12.50;59.60
67529;DHT22;54366;51.980;5.856;2024-03-23T11:55:57;12.50;58.10
67529;DHT22;54366;51.980;5.856;2024-03-23T11:58:25;12.40;59.90
67529;DHT22;54366;51.980;5.856;2024-03-23T12:01:02;12.30;59.40
67529;DHT22;54366;51.980;5.856;2024-03-23T12:03:29;12.30;57.30
67529;DHT22;54366;51.980;5.856;2024-03-23T12:05:58;12.30;58.80
67529;DHT22;54366;51.980;5.856;2024-03-23T12:08:31;12.40;59.70
67529;DHT22;54366;51.980;5.856;2024-03-23T12:11:09;12.40;59.50
67529;DHT22;54366;51.980;5.856;2024-03-23T12:13:37;12.10;58.60
67529;DHT22;54366;51.980;5.856;2024-03-23T12:16:14;11.90;59.50
67529;DHT22;54366;51.980;5.856;2024-03-23T12:18:42;11.70;60.50
67529;DHT22;54366;51.980;5.856;2024-03-23T12:21:08;11.60;60.90
67529;DHT22;54366;51.980;5.856;2024-03-23T12:23:35;11.40;61.30
67529;DHT22;54366;51.980;5.856;2024-03-23T12:26:02;11.40;61.30
67529;DHT22;54366;51.980;5.856;2024-03-23T12:28:28;11.30;61.40
67529;DHT22;54366;51.980;5.856;2024-03-23T12:30:55;11.30;61.60
67529;DHT22;54366;51.980;5.856;2024-03-23T12:33:21;11.30;62.30
67529;DHT22;54366;51.980;5.856;2024-03-23T12:35:48;11.50;62.60
67529;DHT22;54366;51.980;5.856;2024-03-23T12:38:14;11.70;63.00
67529;DHT22;54366;51.980;5.856;2024-03-23T12:40:41;12.00;63.10
67529;DHT22;54366;51.980;5.856;2024-03-23T12:43:07;12.30;62.60
67529;DHT22;54366;51.980;5.856;2024-03-23T12:45:34;12.70;61.90
67529;DHT22;54366;51.980;5.856;2024-03-23T12:48:00;13.00;60.40
67529;DHT22;54366;51.980;5.856;2024-03-23T12:50:26;13.20;59.90
67529;DHT22;54366;51.980;5.856;2024-03-23T12:52:53;13.20;55.80
67529;DHT22;54366;51.980;5.856;2024-03-23T12:55:19;13.10;54.50
67529;DHT22;54366;51.980;5.856;2024-03-23T12:57:46;12.80;54.80
67529;DHT22;54366;51.980;5.856;2024-03-23T13:00:13;12.60;56.70
67529;DHT22;54366;51.980;5.856;2024-03-23T13:02:41;12.50;57.90
67529;DHT22;54366;51.980;5.856;2024-03-23T13:05:08;12.50;58.50
67529;DHT22;54366;51.980;5.856;2024-03-23T13:07:37;12.50;59.00
67529;DHT22;54366;51.980;5.856;2024-03-23T13:10:05;12.60;59.20
67529;DHT22;54366;51.980;5.856;2024-03-23T13:12:32;12.80;58.90
67529;DHT22;54366;51.980;5.856;2024-03-23T13:14:59;12.80;58.30
67529;DHT22;54366;51.980;5.856;2024-03-23T13:17:26;12.90;57.70
67529;DHT22;54366;51.980;5.856;2024-03-23T13:19:55;13.00;56.60
67529;DHT22;54366;51.980;5.856;2024-03-23T13:22:22;12.90;56.00
67529;DHT22;54366;51.980;5.856;2024-03-23T13:24:48;12.80;54.90
67529;DHT22;54366;51.980;5.856;2024-03-23T13:27:14;12.70;54.70
67529;DHT22;54366;51.980;5.856;2024-03-23T13:29:41;12.60;55.50
67529;DHT22;54366;51.980;5.856;2024-03-23T13:32:07;12.50;56.10
67529;DHT22;54366;51.980;5.856;2024-03-23T13:34:34;12.40;55.00
67529;DHT22;54366;51.980;5.856;2024-03-23T13:37:01;12.10;54.30
67529;DHT22;54366;51.980;5.856;2024-03-23T13:39:27;11.90;55.60
67529;DHT22;54366;51.980;5.856;2024-03-23T13:41:54;11.90;56.10
67529;DHT22;54366;51.980;5.856;2024-03-23T13:44:21;11.80;56.90
67529;DHT22;54366;51.980;5.856;2024-03-23T13:46:48;11.80;56.20
67529;DHT22;54366;51.980;5.856;2024-03-23T13:49:28;11.70;57.00
67529;DHT22;54366;51.980;5.856;2024-03-23T13:51:55;11.60;56.90
67529;DHT22;54366;51.980;5.856;2024-03-23T13:54:22;11.60;58.10
67529;DHT22;54366;51.980;5.856;2024-03-23T13:56:49;11.50;58.00
67529;DHT22;54366;51.980;5.856;2024-03-23T13:59:15;11.40;57.60
67529;DHT22;54366;51.980;5.856;2024-03-23T14:01:42;11.30;59.60
67529;DHT22;54366;51.980;5.856;2024-03-23T14:04:08;11.10;60.60
67529;DHT22;54366;51.980;5.856;2024-03-23T14:06:34;11.00;61.70
67529;DHT22;54366;51.980;5.856;2024-03-23T14:09:01;10.90;62.00
67529;DHT22;54366;51.980;5.856;2024-03-23T14:11:27;10.90;61.10
67529;DHT22;54366;51.980;5.856;2024-03-23T14:13:54;10.70;60.50
67529;DHT22;54366;51.980;5.856;2024-03-23T14:16:21;10.70;62.00
67529;DHT22;54366;51.980;5.856;2024-03-23T14:18:47;10.60;62.60
67529;DHT22;54366;51.980;5.856;2024-03-23T14:21:13;10.60;63.50
67529;DHT22;54366;51.980;5.856;2024-03-23T14:23:40;10.70;64.00
67529;DHT22;54366;51.980;5.856;2024-03-23T14:26:09;10.70;64.10
67529;DHT22;54366;51.980;5.856;2024-03-23T14:28:35;10.70;62.60
67529;DHT22;54366;51.980;5.856;2024-03-23T14:31:02;10.60;62.70
67529;DHT22;54366;51.980;5.856;2024-03-23T14:33:29;10.70;63.40
67529;DHT22;54366;51.980;5.856;2024-03-23T14:35:56;10.70;63.50
67529;DHT22;54366;51.980;5.856;2024-03-23T14:38:26;10.60;62.30
67529;DHT22;54366;51.980;5.856;2024-03-23T14:40:52;10.50;63.60
67529;DHT22;54366;51.980;5.856;2024-03-23T14:43:19;10.30;63.10
67529;DHT22;54366;51.980;5.856;2024-03-23T14:46:06;10.20;64.70
67529;DHT22;54366;51.980;5.856;2024-03-23T14:48:33;10.20;65.30
67529;DHT22;54366;51.980;5.856;2024-03-23T14:51:00;10.20;66.00
67529;DHT22;54366;51.980;5.856;2024-03-23T14:53:27;10.20;66.00
67529;DHT22;54366;51.980;5.856;2024-03-23T14:55:57;10.20;65.80
67529;DHT22;54366;51.980;5.856;2024-03-23T14:58:23;10.20;65.50
67529;DHT22;54366;51.980;5.856;2024-03-23T15:00:50;10.20;65.40
67529;DHT22;54366;51.980;5.856;2024-03-23T15:03:18;10.20;65.50
67529;DHT22;54366;51.980;5.856;2024-03-23T15:05:58;10.20;65.90
67529;DHT22;54366;51.980;5.856;2024-03-23T15:08:25;10.20;64.50
67529;DHT22;54366;51.980;5.856;2024-03-23T15:10:51;10.20;64.70
67529;DHT22;54366;51.980;5.856;2024-03-23T15:13:18;10.20;65.00
67529;DHT22;54366;51.980;5.856;2024-03-23T15:15:44;10.30;65.20
67529;DHT22;54366;51.980;5.856;2024-03-23T15:18:11;10.40;65.70
67529;DHT22;54366;51.980;5.856;2024-03-23T15:20:41;10.40;66.30
67529;DHT22;54366;51.980;5.856;2024-03-23T15:23:08;10.50;66.20
67529;DHT22;54366;51.980;5.856;2024-03-23T15:25:34;10.60;66.30
67529;DHT22;54366;51.980;5.856;2024-03-23T15:28:00;10.60;65.80
67529;DHT22;54366;51.980;5.856;2024-03-23T15:30:28;10.70;66.00
67529;DHT22;54366;51.980;5.856;2024-03-23T15:32:54;10.70;64.80
67529;DHT22;54366;51.980;5.856;2024-03-23T15:35:20;10.80;64.00
67529;DHT22;54366;51.980;5.856;2024-03-23T15:37:50;10.80;64.00
67529;DHT22;54366;51.980;5.856;2024-03-23T15:40:16;10.80;63.90
67529;DHT22;54366;51.980;5.856;2024-03-23T15:42:43;10.90;64.10
67529;DHT22;54366;51.980;5.856;2024-03-23T15:45:10;10.90;64.20
67529;DHT22;54366;51.980;5.856;2024-03-23T15:47:36;10.90;63.70
67529;DHT22;54366;51.980;5.856;2024-03-23T15:50:03;10.90;63.60
67529;DHT22;54366;51.980;5.856;2024-03-23T15:52:37;10.80;63.20
67529;DHT22;54366;51.980;5.856;2024-03-23T15:55:04;10.80;62.40
67529;DHT22;54366;51.980;5.856;2024-03-23T15:57:34;10.70;62.10
67529;DHT22;54366;51.980;5.856;2024-03-23T16:00:04;10.80;61.10
67529;DHT22;54366;51.980;5.856;2024-03-23T16:02:39;10.70;59.10
67529;DHT22;54366;51.980;5.856;2024-03-23T16:05:06;10.60;59.80
67529;DHT22;54366;51.980;5.856;2024-03-23T16:07:34;10.50;60.40
67529;DHT22;54366;51.980;5.856;2024-03-23T16:10:01;10.50;61.20
67529;DHT22;54366;51.980;5.856;2024-03-23T16:12:31;10.40;60.60
67529;DHT22;54366;51.980;5.856;2024-03-23T16:14:57;10.40;61.20
67529;DHT22;54366;51.980;5.856;2024-03-23T16:17:23;10.40;61.90
67529;DHT22;54366;51.980;5.856;2024-03-23T16:19:50;10.30;62.00
67529;DHT22;54366;51.980;5.856;2024-03-23T16:22:16;10.30;62.00
67529;DHT22;54366;51.980;5.856;2024-03-23T16:24:43;10.20;63.00
67529;DHT22;54366;51.980;5.856;2024-03-23T16:27:10;10.20;63.00
67529;DHT22;54366;51.980;5.856;2024-03-23T16:29:37;10.20;63.20
67529;DHT22;54366;51.980;5.856;2024-03-23T16:32:03;10.20;63.20
67529;DHT22;54366;51.980;5.856;2024-03-23T16:34:30;10.20;63.90
67529;DHT22;54366;51.980;5.856;2024-03-23T16:36:56;10.20;64.20
67529;DHT22;54366;51.980;5.856;2024-03-23T16:39:22;10.10;64.50
67529;DHT22;54366;51.980;5.856;2024-03-23T16:41:48;10.10;65.10